sensor_id;sensor_type;location;lat;lon;timestamp;temperature;humidity
78289;DHT22;67539;48.752;12.922;2023-05-27T00:02:00;15.00;68.40
78289;DHT22;67539;48.752;12.922;2023-05-27T00:04:28;15.00;68.40
78289;DHT22;67539;48.752;12.922;2023-05-27T00:06:58;15.00;69.40
78289;DHT22;67539;48.752;12.922;2023-05-27T00:09:26;14.90;69.20
78289;DHT22;67539;48.752;12.922;2023-05-27T00:11:54;14.90;69.10
78289;DHT22;67539;48.752;12.922;2023-05-27T00:14:22;14.90;68.90
78289;DHT22;67539;48.752;12.922;2023-05-27T00:16:51;14.90;68.70
78289;DHT22;67539;48.752;12.922;2023-05-27T00:19:19;14.90;68.80
78289;DHT22;67539;48.752;12.922;2023-05-27T00:21:47;14.90;68.90
78289;DHT22;67539;48.752;12.922;2023-05-27T00:24:16;14.90;69.10
78289;DHT22;67539;48.752;12.922;2023-05-27T00:26:44;14.80;69.30
78289;DHT22;67539;48.752;12.922;2023-05-27T00:29:13;14.80;69.70
78289;DHT22;67539;48.752;12.922;2023-05-27T00:31:41;14.80;70.30
78289;DHT22;67539;48.752;12.922;2023-05-27T00:34:09;14.80;71.10
78289;DHT22;67539;48.752;12.922;2023-05-27T00:36:37;14.80;71.50
78289;DHT22;67539;48.752;12.922;2023-05-27T00:39:05;14.70;71.40
78289;DHT22;67539;48.752;12.922;2023-05-27T00:41:34;14.70;70.90
78289;DHT22;67539;48.752;12.922;2023-05-27T00:44:02;14.70;70.80
78289;DHT22;67539;48.752;12.922;2023-05-27T00:46:31;14.60;71.00
78289;DHT22;67539;48.752;12.922;2023-05-27T00:48:59;14.60;71.00
78289;DHT22;67539;48.752;12.922;2023-05-27T00:51:27;14.50;71.00
78289;DHT22;67539;48.752;12.922;2023-05-27T00:53:56;14.50;71.00
78289;DHT22;67539;48.752;12.922;2023-05-27T00:56:24;14.40;70.90
78289;DHT22;67539;48.752;12.922;2023-05-27T00:58:54;14.40;71.00
78289;DHT22;67539;48.752;12.922;2023-05-27T01:01:22;14.30;71.10
78289;DHT22;67539;48.752;12.922;2023-05-27T01:03:52;14.30;71.20
78289;DHT22;67539;48.752;12.922;2023-05-27T01:06:28;14.20;71.60
78289;DHT22;67539;48.752;12.922;2023-05-27T01:09:09;14.20;71.70
78289;DHT22;67539;48.752;12.922;2023-05-27T01:11:43;14.20;71.50
78289;DHT22;67539;48.752;12.922;2023-05-27T01:14:14;14.10;71.50
78289;DHT22;67539;48.752;12.922;2023-05-27T01:16:45;14.10;71.70
78289;DHT22;67539;48.752;12.922;2023-05-27T01:19:17;14.00;71.60
78289;DHT22;67539;48.752;12.922;2023-05-27T01:21:48;14.00;71.80
78289;DHT22;67539;48.752;12.922;2023-05-27T01:24:19;13.90;71.90
78289;DHT22;67539;48.752;12.922;2023-05-27T01:26:47;13.90;71.90
78289;DHT22;67539;48.752;12.922;2023-05-27T01:29:16;13.80;71.80
78289;DHT22;67539;48.752;12.922;2023-05-27T01:31:49;13.80;72.20
78289;DHT22;67539;48.752;12.922;2023-05-27T01:34:25;13.70;73.10
78289;DHT22;67539;48.752;12.922;2023-05-27T01:36:59;13.60;73.30
78289;DHT22;67539;48.752;12.922;2023-05-27T01:39:32;13.50;73.00
78289;DHT22;67539;48.752;12.922;2023-05-27T01:42:01;13.50;73.00
78289;DHT22;67539;48.752;12.922;2023-05-27T01:44:32;13.50;73.00
78289;DHT22;67539;48.752;12.922;2023-05-27T01:47:02;13.40;73.20
78289;DHT22;67539;48.752;12.922;2023-05-27T01:49:30;13.30;73.40
78289;DHT22;67539;48.752;12.922;2023-05-27T01:51:58;13.30;73.60
78289;DHT22;67539;48.752;12.922;2023-05-27T01:54:27;13.30;73.90
78289;DHT22;67539;48.752;12.922;2023-05-27T01:56:56;13.20;73.90
78289;DHT22;67539;48.752;12.922;2023-05-27T01:59:24;13.20;74.10
78289;DHT22;67539;48.752;12.922;2023-05-27T02:01:52;13.20;74.40
78289;DHT22;67539;48.752;12.922;2023-05-27T02:04:20;13.10;74.50
78289;DHT22;67539;48.752;12.922;2023-05-27T02:06:48;13.10;74.80
78289;DHT22;67539;48.752;12.922;2023-05-27T02:09:16;13.00;75.00
78289;DHT22;67539;48.752;12.922;2023-05-27T02:11:46;13.00;75.30
78289;DHT22;67539;48.752;12.922;2023-05-27T02:14:15;12.90;75.80
78289;DHT22;67539;48.752;12.922;2023-05-27T02:16:44;12.80;75.40
78289;DHT22;67539;48.752;12.922;2023-05-27T02:19:14;12.80;75.60
78289;DHT22;67539;48.752;12.922;2023-05-27T02:21:42;12.70;75.90
78289;DHT22;67539;48.752;12.922;2023-05-27T02:24:11;12.70;76.50
78289;DHT22;67539;48.752;12.922;2023-05-27T02:26:39;12.70;76.90
78289;DHT22;67539;48.752;12.922;2023-05-27T02:29:07;12.60;76.70
78289;DHT22;67539;48.752;12.922;2023-05-27T02:31:37;12.60;76.90
78289;DHT22;67539;48.752;12.922;2023-05-27T02:34:05;12.50;77.10
78289;DHT22;67539;48.752;12.922;2023-05-27T02:36:33;12.50;77.10
78289;DHT22;67539;48.752;12.922;2023-05-27T02:39:02;12.40;77.30
78289;DHT22;67539;48.752;12.922;2023-05-27T02:41:30;12.40;77.70
78289;DHT22;67539;48.752;12.922;2023-05-27T02:43:58;12.30;78.10
78289;DHT22;67539;48.752;12.922;2023-05-27T02:46:26;12.20;78.60
78289;DHT22;67539;48.752;12.922;2023-05-27T02:48:55;12.10;79.50
78289;DHT22;67539;48.752;12.922;2023-05-27T02:51:23;12.10;79.80
78289;DHT22;67539;48.752;12.922;2023-05-27T02:53:52;12.10;80.50
78289;DHT22;67539;48.752;12.922;2023-05-27T02:56:20;12.00;80.50
78289;DHT22;67539;48.752;12.922;2023-05-27T02:58:49;11.90;80.80
78289;DHT22;67539;48.752;12.922;2023-05-27T03:01:17;11.90;81.00
78289;DHT22;67539;48.752;12.922;2023-05-27T03:03:46;11.90;81.50
78289;DHT22;67539;48.752;12.922;2023-05-27T03:06:16;11.80;81.60
78289;DHT22;67539;48.752;12.922;2023-05-27T03:08:44;11.80;81.60
78289;DHT22;67539;48.752;12.922;2023-05-27T03:11:12;11.80;82.00
78289;DHT22;67539;48.752;12.922;2023-05-27T03:13:40;11.70;82.40
78289;DHT22;67539;48.752;12.922;2023-05-27T03:16:08;11.70;83.10
78289;DHT22;67539;48.752;12.922;2023-05-27T03:18:37;11.60;83.80
78289;DHT22;67539;48.752;12.922;2023-05-27T03:21:05;11.60;84.30
78289;DHT22;67539;48.752;12.922;2023-05-27T03:23:35;11.60;84.30
78289;DHT22;67539;48.752;12.922;2023-05-27T03:26:03;11.60;84.80
78289;DHT22;67539;48.752;12.922;2023-05-27T03:28:32;11.50;85.20
78289;DHT22;67539;48.752;12.922;2023-05-27T03:31:00;11.50;85.50
78289;DHT22;67539;48.752;12.922;2023-05-27T03:33:51;11.40;86.30
78289;DHT22;67539;48.752;12.922;2023-05-27T03:36:19;11.40;86.40
78289;DHT22;67539;48.752;12.922;2023-05-27T03:38:50;11.40;87.00
78289;DHT22;67539;48.752;12.922;2023-05-27T03:41:18;11.40;87.50
78289;DHT22;67539;48.752;12.922;2023-05-27T03:43:47;11.30;88.20
78289;DHT22;67539;48.752;12.922;2023-05-27T03:46:17;11.20;89.00
78289;DHT22;67539;48.752;12.922;2023-05-27T03:48:46;11.20;89.00
78289;DHT22;67539;48.752;12.922;2023-05-27T03:51:14;11.20;89.20
78289;DHT22;67539;48.752;12.922;2023-05-27T03:53:44;11.30;89.60
78289;DHT22;67539;48.752;12.922;2023-05-27T03:56:13;11.30;90.00
78289;DHT22;67539;48.752;12.922;2023-05-27T03:58:42;11.30;90.00
78289;DHT22;67539;48.752;12.922;2023-05-27T04:01:12;11.30;90.10
78289;DHT22;67539;48.752;12.922;2023-05-27T04:03:40;11.40;90.50
78289;DHT22;67539;48.752;12.922;2023-05-27T04:06:09;11.40;90.60
78289;DHT22;67539;48.752;12.922;2023-05-27T04:08:38;11.40;90.70
78289;DHT22;67539;48.752;12.922;2023-05-27T04:11:10;11.40;90.90
78289;DHT22;67539;48.752;12.922;2023-05-27T04:13:40;11.30;91.00
78289;DHT22;67539;48.752;12.922;2023-05-27T04:16:10;11.30;91.00
78289;DHT22;67539;48.752;12.922;2023-05-27T04:18:38;11.40;91.60
78289;DHT22;67539;48.752;12.922;2023-05-27T04:21:07;11.40;91.90
78289;DHT22;67539;48.752;12.922;2023-05-27T04:23:35;11.40;92.10
78289;DHT22;67539;48.752;12.922;2023-05-27T04:26:04;11.40;92.30
78289;DHT22;67539;48.752;12.922;2023-05-27T04:28:37;11.50;92.70
78289;DHT22;67539;48.752;12.922;2023-05-27T04:31:07;11.50;92.60
78289;DHT22;67539;48.752;12.922;2023-05-27T04:33:45;11.60;92.50
78289;DHT22;67539;48.752;12.922;2023-05-27T04:36:14;11.60;92.30
78289;DHT22;67539;48.752;12.922;2023-05-27T04:39:05;11.60;92.20
78289;DHT22;67539;48.752;12.922;2023-05-27T04:41:35;11.70;91.90
78289;DHT22;67539;48.752;12.922;2023-05-27T04:44:19;11.80;91.70
78289;DHT22;67539;48.752;12.922;2023-05-27T04:46:50;11.90;91.70
78289;DHT22;67539;48.752;12.922;2023-05-27T04:49:19;12.00;91.60
78289;DHT22;67539;48.752;12.922;2023-05-27T04:51:49;12.00;91.50
78289;DHT22;67539;48.752;12.922;2023-05-27T04:54:19;12.10;91.30
78289;DHT22;67539;48.752;12.922;2023-05-27T04:56:49;12.20;91.40
78289;DHT22;67539;48.752;12.922;2023-05-27T04:59:27;12.20;91.50
78289;DHT22;67539;48.752;12.922;2023-05-27T05:02:16;12.30;91.40
78289;DHT22;67539;48.752;12.922;2023-05-27T05:05:09;12.40;91.30
78289;DHT22;67539;48.752;12.922;2023-05-27T05:07:40;12.50;90.70
78289;DHT22;67539;48.752;12.922;2023-05-27T05:10:11;12.60;90.40
78289;DHT22;67539;48.752;12.922;2023-05-27T05:12:47;12.60;90.50
78289;DHT22;67539;48.752;12.922;2023-05-27T05:15:15;12.80;90.50
78289;DHT22;67539;48.752;12.922;2023-05-27T05:17:45;12.80;90.60
78289;DHT22;67539;48.752;12.922;2023-05-27T05:20:13;12.90;90.70
78289;DHT22;67539;48.752;12.922;2023-05-27T05:22:41;13.00;90.40
78289;DHT22;67539;48.752;12.922;2023-05-27T05:25:10;13.00;90.50
78289;DHT22;67539;48.752;12.922;2023-05-27T05:27:45;13.10;90.60
78289;DHT22;67539;48.752;12.922;2023-05-27T05:30:13;13.30;90.20
78289;DHT22;67539;48.752;12.922;2023-05-27T05:32:42;13.40;90.60
78289;DHT22;67539;48.752;12.922;2023-05-27T05:35:11;13.40;90.30
78289;DHT22;67539;48.752;12.922;2023-05-27T05:37:45;13.50;90.40
78289;DHT22;67539;48.752;12.922;2023-05-27T05:40:13;13.60;90.10
78289;DHT22;67539;48.752;12.922;2023-05-27T05:42:53;13.80;89.30
78289;DHT22;67539;48.752;12.922;2023-05-27T05:45:21;13.90;89.30
78289;DHT22;67539;48.752;12.922;2023-05-27T05:47:52;13.90;88.40
78289;DHT22;67539;48.752;12.922;2023-05-27T05:50:26;14.10;88.30
78289;DHT22;67539;48.752;12.922;2023-05-27T05:52:54;14.20;88.60
78289;DHT22;67539;48.752;12.922;2023-05-27T05:55:23;14.30;89.00
78289;DHT22;67539;48.752;12.922;2023-05-27T05:57:51;14.40;88.40
78289;DHT22;67539;48.752;12.922;2023-05-27T06:00:19;14.50;88.60
78289;DHT22;67539;48.752;12.922;2023-05-27T06:02:51;14.60;88.80
78289;DHT22;67539;48.752;12.922;2023-05-27T06:05:41;14.70;88.50
78289;DHT22;67539;48.752;12.922;2023-05-27T06:08:09;14.80;88.60
78289;DHT22;67539;48.752;12.922;2023-05-27T06:10:40;14.90;87.40
78289;DHT22;67539;48.752;12.922;2023-05-27T06:13:08;15.00;86.50
78289;DHT22;67539;48.752;12.922;2023-05-27T06:15:38;15.20;85.60
78289;DHT22;67539;48.752;12.922;2023-05-27T06:18:09;15.40;85.80
78289;DHT22;67539;48.752;12.922;2023-05-27T06:20:37;15.40;84.80
78289;DHT22;67539;48.752;12.922;2023-05-27T06:23:07;15.60;85.60
78289;DHT22;67539;48.752;12.922;2023-05-27T06:25:53;15.70;85.10
78289;DHT22;67539;48.752;12.922;2023-05-27T06:28:23;15.80;85.80
78289;DHT22;67539;48.752;12.922;2023-05-27T06:30:52;15.90;84.30
78289;DHT22;67539;48.752;12.922;2023-05-27T06:33:20;16.00;84.20
78289;DHT22;67539;48.752;12.922;2023-05-27T06:35:49;16.10;83.30
78289;DHT22;67539;48.752;12.922;2023-05-27T06:38:19;16.20;82.70
78289;DHT22;67539;48.752;12.922;2023-05-27T06:40:49;16.30;82.70
78289;DHT22;67539;48.752;12.922;2023-05-27T06:43:18;16.40;82.70
78289;DHT22;67539;48.752;12.922;2023-05-27T06:45:57;16.60;82.40
78289;DHT22;67539;48.752;12.922;2023-05-27T06:48:49;16.60;82.40
78289;DHT22;67539;48.752;12.922;2023-05-27T06:51:18;16.80;82.10
78289;DHT22;67539;48.752;12.922;2023-05-27T06:53:47;16.90;81.30
78289;DHT22;67539;48.752;12.922;2023-05-27T06:56:21;17.00;80.40
78289;DHT22;67539;48.752;12.922;2023-05-27T06:59:17;17.10;80.00
78289;DHT22;67539;48.752;12.922;2023-05-27T07:01:47;17.20;79.30
78289;DHT22;67539;48.752;12.922;2023-05-27T07:04:16;17.20;78.80
78289;DHT22;67539;48.752;12.922;2023-05-27T07:06:56;17.30;78.20
78289;DHT22;67539;48.752;12.922;2023-05-27T07:09:26;17.40;78.30
78289;DHT22;67539;48.752;12.922;2023-05-27T07:11:54;17.50;78.60
78289;DHT22;67539;48.752;12.922;2023-05-27T07:14:40;17.60;78.80
78289;DHT22;67539;48.752;12.922;2023-05-27T07:17:11;17.70;78.80
78289;DHT22;67539;48.752;12.922;2023-05-27T07:19:39;17.70;78.80
78289;DHT22;67539;48.752;12.922;2023-05-27T07:22:13;17.80;79.00
78289;DHT22;67539;48.752;12.922;2023-05-27T07:24:43;17.90;78.70
78289;DHT22;67539;48.752;12.922;2023-05-27T07:27:11;18.00;78.30
78289;DHT22;67539;48.752;12.922;2023-05-27T07:29:44;18.10;78.20
78289;DHT22;67539;48.752;12.922;2023-05-27T07:32:25;18.20;77.10
78289;DHT22;67539;48.752;12.922;2023-05-27T07:34:53;18.30;76.30
78289;DHT22;67539;48.752;12.922;2023-05-27T07:37:22;18.40;75.60
78289;DHT22;67539;48.752;12.922;2023-05-27T07:39:54;18.50;75.90
78289;DHT22;67539;48.752;12.922;2023-05-27T07:42:23;18.60;74.90
78289;DHT22;67539;48.752;12.922;2023-05-27T07:44:51;18.70;74.20
78289;DHT22;67539;48.752;12.922;2023-05-27T07:47:19;18.70;75.00
78289;DHT22;67539;48.752;12.922;2023-05-27T07:49:49;18.80;74.90
78289;DHT22;67539;48.752;12.922;2023-05-27T07:52:36;18.90;74.80
78289;DHT22;67539;48.752;12.922;2023-05-27T07:55:17;19.00;73.40
78289;DHT22;67539;48.752;12.922;2023-05-27T07:57:46;19.10;74.40
78289;DHT22;67539;48.752;12.922;2023-05-27T08:00:15;19.20;73.60
78289;DHT22;67539;48.752;12.922;2023-05-27T08:02:51;19.30;71.90
78289;DHT22;67539;48.752;12.922;2023-05-27T08:05:47;19.40;71.70
78289;DHT22;67539;48.752;12.922;2023-05-27T08:08:34;19.50;72.30
78289;DHT22;67539;48.752;12.922;2023-05-27T08:11:34;19.60;71.20
78289;DHT22;67539;48.752;12.922;2023-05-27T08:14:22;19.70;72.00
78289;DHT22;67539;48.752;12.922;2023-05-27T08:17:12;19.80;72.00
78289;DHT22;67539;48.752;12.922;2023-05-27T08:19:43;19.90;71.60
78289;DHT22;67539;48.752;12.922;2023-05-27T08:22:34;20.00;69.40
78289;DHT22;67539;48.752;12.922;2023-05-27T08:25:22;20.10;69.80
78289;DHT22;67539;48.752;12.922;2023-05-27T08:28:06;20.20;70.10
78289;DHT22;67539;48.752;12.922;2023-05-27T08:30:44;20.30;69.60
78289;DHT22;67539;48.752;12.922;2023-05-27T08:33:19;20.40;68.90
78289;DHT22;67539;48.752;12.922;2023-05-27T08:35:48;20.40;69.60
78289;DHT22;67539;48.752;12.922;2023-05-27T08:38:16;20.50;69.00
78289;DHT22;67539;48.752;12.922;2023-05-27T08:40:45;20.60;69.70
78289;DHT22;67539;48.752;12.922;2023-05-27T08:43:15;20.70;68.80
78289;DHT22;67539;48.752;12.922;2023-05-27T08:45:44;20.70;66.40
78289;DHT22;67539;48.752;12.922;2023-05-27T08:48:12;20.70;68.10
78289;DHT22;67539;48.752;12.922;2023-05-27T08:50:43;20.80;68.70
78289;DHT22;67539;48.752;12.922;2023-05-27T08:53:12;20.90;67.00
78289;DHT22;67539;48.752;12.922;2023-05-27T08:55:43;20.90;67.50
78289;DHT22;67539;48.752;12.922;2023-05-27T08:58:13;21.00;66.80
78289;DHT22;67539;48.752;12.922;2023-05-27T09:00:47;21.10;65.60
78289;DHT22;67539;48.752;12.922;2023-05-27T09:03:18;21.20;65.90
78289;DHT22;67539;48.752;12.922;2023-05-27T09:05:47;21.20;64.50
78289;DHT22;67539;48.752;12.922;2023-05-27T09:08:15;21.30;65.30
78289;DHT22;67539;48.752;12.922;2023-05-27T09:10:43;21.30;64.40
78289;DHT22;67539;48.752;12.922;2023-05-27T09:13:11;21.30;64.70
78289;DHT22;67539;48.752;12.922;2023-05-27T09:15:41;21.40;64.60
78289;DHT22;67539;48.752;12.922;2023-05-27T09:18:09;21.40;61.70
78289;DHT22;67539;48.752;12.922;2023-05-27T09:20:42;21.40;64.40
78289;DHT22;67539;48.752;12.922;2023-05-27T09:23:11;21.40;64.20
78289;DHT22;67539;48.752;12.922;2023-05-27T09:25:39;21.50;64.60
78289;DHT22;67539;48.752;12.922;2023-05-27T09:28:08;21.60;63.90
78289;DHT22;67539;48.752;12.922;2023-05-27T09:30:36;21.70;61.50
78289;DHT22;67539;48.752;12.922;2023-05-27T09:33:06;21.70;62.10
78289;DHT22;67539;48.752;12.922;2023-05-27T09:35:37;21.60;57.00
78289;DHT22;67539;48.752;12.922;2023-05-27T09:38:06;21.60;59.30
78289;DHT22;67539;48.752;12.922;2023-05-27T09:40:35;21.70;57.00
78289;DHT22;67539;48.752;12.922;2023-05-27T09:43:05;21.60;56.90
78289;DHT22;67539;48.752;12.922;2023-05-27T09:45:33;21.60;59.20
78289;DHT22;67539;48.752;12.922;2023-05-27T09:48:03;21.70;61.80
78289;DHT22;67539;48.752;12.922;2023-05-27T09:50:33;21.80;61.00
78289;DHT22;67539;48.752;12.922;2023-05-27T09:53:02;21.90;59.40
78289;DHT22;67539;48.752;12.922;2023-05-27T09:55:38;21.90;61.30
78289;DHT22;67539;48.752;12.922;2023-05-27T09:58:08;22.10;59.80
78289;DHT22;67539;48.752;12.922;2023-05-27T10:00:39;22.20;61.00
78289;DHT22;67539;48.752;12.922;2023-05-27T10:03:08;22.30;59.90
78289;DHT22;67539;48.752;12.922;2023-05-27T10:05:39;22.40;57.60
78289;DHT22;67539;48.752;12.922;2023-05-27T10:08:08;22.40;57.20
78289;DHT22;67539;48.752;12.922;2023-05-27T10:10:50;22.40;56.50
78289;DHT22;67539;48.752;12.922;2023-05-27T10:13:19;22.50;56.70
78289;DHT22;67539;48.752;12.922;2023-05-27T10:15:51;22.50;56.20
78289;DHT22;67539;48.752;12.922;2023-05-27T10:18:24;22.60;58.00
78289;DHT22;67539;48.752;12.922;2023-05-27T10:20:57;22.60;59.30
78289;DHT22;67539;48.752;12.922;2023-05-27T10:23:26;22.70;58.30
78289;DHT22;67539;48.752;12.922;2023-05-27T10:25:56;22.80;57.70
78289;DHT22;67539;48.752;12.922;2023-05-27T10:28:26;22.80;56.30
78289;DHT22;67539;48.752;12.922;2023-05-27T10:31:03;23.00;53.30
78289;DHT22;67539;48.752;12.922;2023-05-27T10:33:35;23.00;56.00
78289;DHT22;67539;48.752;12.922;2023-05-27T10:36:07;23.00;55.80
78289;DHT22;67539;48.752;12.922;2023-05-27T10:38:36;23.10;55.80
78289;DHT22;67539;48.752;12.922;2023-05-27T10:41:06;23.20;55.90
78289;DHT22;67539;48.752;12.922;2023-05-27T10:43:35;23.30;56.10
78289;DHT22;67539;48.752;12.922;2023-05-27T10:46:06;23.30;55.60
78289;DHT22;67539;48.752;12.922;2023-05-27T10:48:36;23.40;54.70
78289;DHT22;67539;48.752;12.922;2023-05-27T10:51:08;23.40;54.60
78289;DHT22;67539;48.752;12.922;2023-05-27T10:53:37;23.40;53.40
78289;DHT22;67539;48.752;12.922;2023-05-27T10:56:05;23.50;54.70
78289;DHT22;67539;48.752;12.922;2023-05-27T10:58:37;23.60;53.50
78289;DHT22;67539;48.752;12.922;2023-05-27T11:01:08;23.70;53.30
78289;DHT22;67539;48.752;12.922;2023-05-27T11:03:42;23.70;53.20
78289;DHT22;67539;48.752;12.922;2023-05-27T11:06:13;23.70;52.90
78289;DHT22;67539;48.752;12.922;2023-05-27T11:08:43;23.50;49.20
78289;DHT22;67539;48.752;12.922;2023-05-27T11:11:12;23.60;54.40
78289;DHT22;67539;48.752;12.922;2023-05-27T11:13:42;23.70;53.00
78289;DHT22;67539;48.752;12.922;2023-05-27T11:16:14;23.70;52.10
78289;DHT22;67539;48.752;12.922;2023-05-27T11:18:44;23.80;50.60
78289;DHT22;67539;48.752;12.922;2023-05-27T11:21:15;23.80;52.40
78289;DHT22;67539;48.752;12.922;2023-05-27T11:23:46;23.90;53.30
78289;DHT22;67539;48.752;12.922;2023-05-27T11:26:16;24.00;52.90
78289;DHT22;67539;48.752;12.922;2023-05-27T11:28:46;24.10;53.50
78289;DHT22;67539;48.752;12.922;2023-05-27T11:31:15;24.10;53.40
78289;DHT22;67539;48.752;12.922;2023-05-27T11:33:44;24.20;53.30
78289;DHT22;67539;48.752;12.922;2023-05-27T11:36:14;24.10;48.10
78289;DHT22;67539;48.752;12.922;2023-05-27T11:38:51;24.10;51.00
78289;DHT22;67539;48.752;12.922;2023-05-27T11:41:20;24.20;53.80
78289;DHT22;67539;48.752;12.922;2023-05-27T11:43:50;24.30;53.20
78289;DHT22;67539;48.752;12.922;2023-05-27T11:46:18;24.50;53.60
78289;DHT22;67539;48.752;12.922;2023-05-27T11:48:47;24.60;53.10
78289;DHT22;67539;48.752;12.922;2023-05-27T11:51:17;24.70;52.10
78289;DHT22;67539;48.752;12.922;2023-05-27T11:53:45;24.80;51.10
78289;DHT22;67539;48.752;12.922;2023-05-27T11:56:13;24.90;51.00
78289;DHT22;67539;48.752;12.922;2023-05-27T11:58:42;25.00;51.40
78289;DHT22;67539;48.752;12.922;2023-05-27T12:01:10;25.00;51.10
78289;DHT22;67539;48.752;12.922;2023-05-27T12:03:38;25.10;50.90
78289;DHT22;67539;48.752;12.922;2023-05-27T12:06:06;25.00;47.10
78289;DHT22;67539;48.752;12.922;2023-05-27T12:08:35;24.80;47.30
78289;DHT22;67539;48.752;12.922;2023-05-27T12:11:05;24.90;50.40
78289;DHT22;67539;48.752;12.922;2023-05-27T12:13:33;24.90;45.10
78289;DHT22;67539;48.752;12.922;2023-05-27T17:21:38;34.00;33.70
78289;DHT22;67539;48.752;12.922;2023-05-27T17:24:07;33.80;33.20
78289;DHT22;67539;48.752;12.922;2023-05-27T17:26:35;33.50;32.90
78289;DHT22;67539;48.752;12.922;2023-05-27T17:29:04;33.30;32.30
78289;DHT22;67539;48.752;12.922;2023-05-27T17:31:32;33.00;32.70
78289;DHT22;67539;48.752;12.922;2023-05-27T17:34:01;32.80;32.40
78289;DHT22;67539;48.752;12.922;2023-05-27T17:36:29;32.40;32.90
78289;DHT22;67539;48.752;12.922;2023-05-27T17:38:59;32.40;32.30
78289;DHT22;67539;48.752;12.922;2023-05-27T17:41:27;32.20;32.90
78289;DHT22;67539;48.752;12.922;2023-05-27T17:43:56;31.70;32.80
78289;DHT22;67539;48.752;12.922;2023-05-27T17:46:25;31.50;32.50
78289;DHT22;67539;48.752;12.922;2023-05-27T17:48:53;31.30;32.60
78289;DHT22;67539;48.752;12.922;2023-05-27T17:51:21;31.10;33.20
78289;DHT22;67539;48.752;12.922;2023-05-27T17:53:51;30.60;33.70
78289;DHT22;67539;48.752;12.922;2023-05-27T17:56:23;30.30;32.90
78289;DHT22;67539;48.752;12.922;2023-05-27T17:58:52;30.00;33.00
78289;DHT22;67539;48.752;12.922;2023-05-27T18:01:20;29.60;33.20
78289;DHT22;67539;48.752;12.922;2023-05-27T18:03:50;29.30;33.50
78289;DHT22;67539;48.752;12.922;2023-05-27T18:06:18;29.00;33.60
78289;DHT22;67539;48.752;12.922;2023-05-27T18:08:46;28.60;33.80
78289;DHT22;67539;48.752;12.922;2023-05-27T18:11:15;28.20;33.60
78289;DHT22;67539;48.752;12.922;2023-05-27T18:13:44;27.90;33.80
78289;DHT22;67539;48.752;12.922;2023-05-27T18:16:13;27.50;34.10
78289;DHT22;67539;48.752;12.922;2023-05-27T18:18:42;27.30;34.30
78289;DHT22;67539;48.752;12.922;2023-05-27T18:21:10;27.00;34.30
78289;DHT22;67539;48.752;12.922;2023-05-27T18:23:39;26.60;35.00
78289;DHT22;67539;48.752;12.922;2023-05-27T18:26:07;26.20;35.30
78289;DHT22;67539;48.752;12.922;2023-05-27T18:28:35;25.70;36.30
78289;DHT22;67539;48.752;12.922;2023-05-27T18:31:05;25.10;37.00
78289;DHT22;67539;48.752;12.922;2023-05-27T18:33:34;24.50;38.60
78289;DHT22;67539;48.752;12.922;2023-05-27T18:36:03;24.20;37.90
78289;DHT22;67539;48.752;12.922;2023-05-27T18:38:32;23.70;38.90
78289;DHT22;67539;48.752;12.922;2023-05-27T18:41:02;23.30;39.00
78289;DHT22;67539;48.752;12.922;2023-05-27T18:43:30;22.90;39.70
78289;DHT22;67539;48.752;12.922;2023-05-27T18:45:58;22.70;40.00
78289;DHT22;67539;48.752;12.922;2023-05-27T18:48:28;22.30;40.30
78289;DHT22;67539;48.752;12.922;2023-05-27T18:50:58;22.00;40.50
78289;DHT22;67539;48.752;12.922;2023-05-27T18:53:27;21.80;41.30
78289;DHT22;67539;48.752;12.922;2023-05-27T18:55:55;21.50;42.40
78289;DHT22;67539;48.752;12.922;2023-05-27T18:58:24;21.20;41.80
78289;DHT22;67539;48.752;12.922;2023-05-27T19:00:52;21.00;41.80
78289;DHT22;67539;48.752;12.922;2023-05-27T19:03:21;20.80;41.90
78289;DHT22;67539;48.752;12.922;2023-05-27T19:05:51;20.60;42.10
78289;DHT22;67539;48.752;12.922;2023-05-27T19:08:19;20.40;43.00
78289;DHT22;67539;48.752;12.922;2023-05-27T19:10:48;20.10;43.10
78289;DHT22;67539;48.752;12.922;2023-05-27T19:13:17;19.90;43.60
78289;DHT22;67539;48.752;12.922;2023-05-27T19:15:46;19.80;43.60
78289;DHT22;67539;48.752;12.922;2023-05-27T19:18:14;19.50;43.80
78289;DHT22;67539;48.752;12.922;2023-05-27T19:20:43;19.40;44.10
78289;DHT22;67539;48.752;12.922;2023-05-27T19:23:13;19.30;44.30
78289;DHT22;67539;48.752;12.922;2023-05-27T19:25:41;19.20;44.20
78289;DHT22;67539;48.752;12.922;2023-05-27T19:28:10;19.10;44.30
78289;DHT22;67539;48.752;12.922;2023-05-27T19:30:38;19.00;44.50
78289;DHT22;67539;48.752;12.922;2023-05-27T19:33:07;18.90;45.60
78289;DHT22;67539;48.752;12.922;2023-05-27T19:35:37;18.90;45.90
78289;DHT22;67539;48.752;12.922;2023-05-27T19:38:05;18.70;46.20
78289;DHT22;67539;48.752;12.922;2023-05-27T19:40:35;18.70;46.30
78289;DHT22;67539;48.752;12.922;2023-05-27T19:43:03;18.50;46.60
78289;DHT22;67539;48.752;12.922;2023-05-27T19:45:32;18.40;46.70
78289;DHT22;67539;48.752;12.922;2023-05-27T19:48:00;18.30;47.20
78289;DHT22;67539;48.752;12.922;2023-05-27T19:50:29;18.10;48.10
78289;DHT22;67539;48.752;12.922;2023-05-27T19:52:57;18.00;48.50
78289;DHT22;67539;48.752;12.922;2023-05-27T19:55:26;17.90;48.40
78289;DHT22;67539;48.752;12.922;2023-05-27T19:57:55;17.80;48.80
78289;DHT22;67539;48.752;12.922;2023-05-27T20:00:25;17.70;49.80
78289;DHT22;67539;48.752;12.922;2023-05-27T20:02:53;17.60;49.70
78289;DHT22;67539;48.752;12.922;2023-05-27T20:05:22;17.60;50.20
78289;DHT22;67539;48.752;12.922;2023-05-27T20:07:50;17.40;50.10
78289;DHT22;67539;48.752;12.922;2023-05-27T20:10:19;17.40;50.20
78289;DHT22;67539;48.752;12.922;2023-05-27T20:12:47;17.40;51.40
78289;DHT22;67539;48.752;12.922;2023-05-27T20:15:17;17.30;50.40
78289;DHT22;67539;48.752;12.922;2023-05-27T20:17:46;17.30;51.00
78289;DHT22;67539;48.752;12.922;2023-05-27T20:20:15;17.20;51.30
78289;DHT22;67539;48.752;12.922;2023-05-27T20:22:47;17.10;51.30
78289;DHT22;67539;48.752;12.922;2023-05-27T20:25:16;17.00;52.00
78289;DHT22;67539;48.752;12.922;2023-05-27T20:27:44;17.00;52.20
78289;DHT22;67539;48.752;12.922;2023-05-27T20:30:13;16.90;52.00
78289;DHT22;67539;48.752;12.922;2023-05-27T20:32:43;16.80;52.40
78289;DHT22;67539;48.752;12.922;2023-05-27T20:35:11;16.70;53.60
78289;DHT22;67539;48.752;12.922;2023-05-27T20:37:40;16.60;53.30
78289;DHT22;67539;48.752;12.922;2023-05-27T20:40:09;16.60;53.00
78289;DHT22;67539;48.752;12.922;2023-05-27T20:42:37;16.50;53.60